createdAt,value
2018-04-13T00:00:53.163Z,23.20
2018-04-13T00:03:20.661Z,22.30
2018-04-13T00:05:48.178Z,24.13
2018-04-13T00:08:15.682Z,22.77
2018-04-13T00:10:44.237Z,24.87
2018-04-13T00:13:11.739Z,24.03
2018-04-13T00:15:39.442Z,24.37
2018-04-13T00:18:06.997Z,25.43
2018-04-13T00:20:34.507Z,23.50
2018-04-13T00:23:02.077Z,22.97
2018-04-13T00:25:29.602Z,23.87
2018-04-13T00:27:57.351Z,24.60
2018-04-13T00:30:25.758Z,24.03
2018-04-13T00:32:53.285Z,24.80
2018-04-13T00:35:20.795Z,26.47
2018-04-13T00:37:48.354Z,25.57
2018-04-13T00:40:15.866Z,25.03
2018-04-13T00:42:43.626Z,25.00
2018-04-13T00:45:11.685Z,22.90
2018-04-13T00:47:39.450Z,26.00
2018-04-13T00:50:06.950Z,25.97
2018-04-13T00:52:34.675Z,27.67
2018-04-13T00:55:02.180Z,24.93
2018-04-13T00:57:29.700Z,25.23
2018-04-13T00:59:57.346Z,26.37
2018-04-13T01:02:25.106Z,28.43
2018-04-13T01:04:53.005Z,25.53
2018-04-13T01:07:21.250Z,26.90
2018-04-13T01:09:49.018Z,26.70
2018-04-13T01:12:16.777Z,27.03
2018-04-13T01:14:44.287Z,27.40
2018-04-13T01:17:11.995Z,25.23
2018-04-13T01:19:39.516Z,26.93
2018-04-13T01:22:07.291Z,28.07
2018-04-13T01:24:34.996Z,28.67
2018-04-13T01:27:02.532Z,26.27
2018-04-13T01:29:30.036Z,27.03
2018-04-13T01:31:58.573Z,26.80
2018-04-13T01:34:26.082Z,27.20
2018-04-13T01:36:53.609Z,27.47
2018-04-13T01:39:21.557Z,26.67
2018-04-13T01:41:49.281Z,28.90
2018-04-13T01:44:16.810Z,29.00
2018-04-13T01:46:44.330Z,26.70
2018-04-13T01:49:12.010Z,27.07
2018-04-13T01:51:41.301Z,28.37
2018-04-13T01:54:08.806Z,28.40
2018-04-13T01:56:36.342Z,27.00
2018-04-13T01:59:03.874Z,28.17
2018-04-13T02:01:31.437Z,29.00
2018-04-13T02:03:58.953Z,28.07
2018-04-13T02:06:26.474Z,26.40
2018-04-13T02:08:53.989Z,28.10
2018-04-13T02:11:21.549Z,28.33
2018-04-13T02:13:49.049Z,28.73
2018-04-13T02:16:16.788Z,27.83
2018-04-13T02:18:44.556Z,28.27
2018-04-13T02:21:12.701Z,28.80
2018-04-13T02:23:40.336Z,28.13
2018-04-13T02:26:07.846Z,27.10
2018-04-13T02:28:35.353Z,25.97
2018-04-13T02:31:03.063Z,28.20
2018-04-13T02:33:30.554Z,29.80
2018-04-13T02:35:58.291Z,28.17
2018-04-13T02:38:25.798Z,27.37
2018-04-13T02:40:53.298Z,28.10
2018-04-13T02:43:20.812Z,29.27
2018-04-13T02:45:48.306Z,30.07
2018-04-13T02:48:15.865Z,31.33
2018-04-13T02:50:43.370Z,31.40
2018-04-13T02:53:11.097Z,29.17
2018-04-13T02:55:38.599Z,30.87
2018-04-13T02:58:06.115Z,32.60
2018-04-13T03:00:33.641Z,32.30
2018-04-13T03:03:01.222Z,31.30
2018-04-13T03:05:28.958Z,30.67
2018-04-13T03:07:56.471Z,32.47
2018-04-13T03:10:24.090Z,31.77
2018-04-13T03:12:51.634Z,29.60
2018-04-13T03:15:19.142Z,32.23
2018-04-13T03:17:46.666Z,31.23
2018-04-13T03:20:14.530Z,33.90
2018-04-13T03:22:42.102Z,30.47
2018-04-13T03:25:09.618Z,30.23
2018-04-13T03:27:37.129Z,31.70
2018-04-13T03:30:04.648Z,30.87
2018-04-13T03:32:32.150Z,30.27
2018-04-13T03:34:59.666Z,30.00
2018-04-13T03:37:27.586Z,32.90
2018-04-13T03:39:55.088Z,31.60
2018-04-13T03:42:22.681Z,32.73
2018-04-13T03:44:50.178Z,33.10
2018-04-13T03:47:17.864Z,30.67
2018-04-13T03:49:45.361Z,32.47
2018-04-13T03:52:13.118Z,32.37
2018-04-13T03:54:40.879Z,32.80
2018-04-13T03:57:08.398Z,32.40
2018-04-13T03:59:35.909Z,30.73
2018-04-13T04:02:03.546Z,31.97
2018-04-13T04:04:31.751Z,33.20
2018-04-13T04:06:59.384Z,31.70
2018-04-13T04:09:27.164Z,31.40
2018-04-13T04:11:54.700Z,31.60
2018-04-13T04:14:22.197Z,33.43
2018-04-13T04:16:50.518Z,32.60
2018-04-13T04:19:18.201Z,31.87
2018-04-13T04:22:11.784Z,34.73
2018-04-13T04:24:51.222Z,32.50
2018-04-13T04:27:18.729Z,31.07
2018-04-13T04:29:46.426Z,34.50
2018-04-13T04:32:14.209Z,32.83
2018-04-13T04:34:41.962Z,32.10
2018-04-13T04:37:09.466Z,33.37
2018-04-13T04:39:37.183Z,30.00
2018-04-13T04:42:05.309Z,32.43
2018-04-13T04:44:32.817Z,31.30
2018-04-13T04:47:00.310Z,34.03
2018-04-13T04:49:28.593Z,31.87
2018-04-13T04:51:56.281Z,33.07
2018-04-13T04:54:24.071Z,33.77
2018-04-13T04:56:51.846Z,32.23
2018-04-13T04:59:19.615Z,33.70
2018-04-13T05:01:47.114Z,32.17
2018-04-13T05:04:14.638Z,35.00
2018-04-13T05:06:42.287Z,33.73
2018-04-13T05:09:09.799Z,36.03
2018-04-13T05:11:37.310Z,34.00
2018-04-13T05:14:04.941Z,35.37
2018-04-13T05:16:32.446Z,33.90
2018-04-13T05:19:00.158Z,42.47
2018-04-13T05:21:27.886Z,37.00
2018-04-13T05:23:55.392Z,34.20
2018-04-13T05:26:22.890Z,34.80
2018-04-13T05:28:50.409Z,34.03
2018-04-13T05:31:18.070Z,37.57
2018-04-13T05:33:46.427Z,82.77
2018-04-13T05:36:13.930Z,50.37
2018-04-13T05:38:41.679Z,35.13
2018-04-13T05:41:09.183Z,34.50
2018-04-13T05:43:36.810Z,34.70
2018-04-13T05:46:04.376Z,32.60
2018-04-13T05:48:32.106Z,34.07
2018-04-13T05:50:59.608Z,33.90
2018-04-13T05:53:27.314Z,33.47
2018-04-13T05:55:54.831Z,30.67
2018-04-13T05:58:22.336Z,33.07
2018-04-13T06:00:50.019Z,33.73
2018-04-13T06:03:17.767Z,31.83
2018-04-13T06:05:45.530Z,33.60
2018-04-13T06:08:13.046Z,31.50
2018-04-13T06:10:40.549Z,32.17
2018-04-13T06:13:08.065Z,35.27
2018-04-13T06:15:36.158Z,31.80
2018-04-13T06:18:03.739Z,34.00
2018-04-13T06:20:31.245Z,32.33
2018-04-13T06:22:58.758Z,33.23
2018-04-13T06:25:26.282Z,36.53
2018-04-13T06:27:53.948Z,35.43
2018-04-13T06:30:21.604Z,33.83
2018-04-13T06:32:49.123Z,33.50
2018-04-13T06:35:16.650Z,33.80
2018-04-13T06:37:44.485Z,32.67
2018-04-13T06:40:12.049Z,34.10
2018-04-13T06:42:39.557Z,34.97
2018-04-13T06:45:07.290Z,33.60
2018-04-13T06:47:34.806Z,34.13
2018-04-13T06:50:02.512Z,35.70
2018-04-13T06:52:30.044Z,37.97
2018-04-13T06:54:57.702Z,37.90
2018-04-13T06:57:25.241Z,39.17
2018-04-13T06:59:52.747Z,39.30
2018-04-13T07:02:20.257Z,38.57
2018-04-13T07:04:47.789Z,36.57
2018-04-13T07:07:15.323Z,36.97
2018-04-13T07:09:42.878Z,39.77
2018-04-13T07:12:10.545Z,40.03
2018-04-13T07:14:38.071Z,39.37
2018-04-13T07:17:05.589Z,39.10
2018-04-13T07:19:34.600Z,41.03
2018-04-13T07:22:02.122Z,40.50
2018-04-13T07:24:29.641Z,41.10
2018-04-13T07:26:57.153Z,40.87
2018-04-13T07:29:24.666Z,39.30
2018-04-13T07:31:52.178Z,40.60
2018-04-13T07:34:20.462Z,39.87
2018-04-13T07:36:48.189Z,43.23
2018-04-13T07:39:15.739Z,41.30
2018-04-13T07:41:43.241Z,41.00
2018-04-13T07:44:10.905Z,41.97
2018-04-13T07:46:38.357Z,40.40
2018-04-13T07:49:06.130Z,42.00
2018-04-13T07:51:33.552Z,41.30
2018-04-13T07:54:01.071Z,40.80
2018-04-13T07:56:28.590Z,41.10
2018-04-13T07:58:56.866Z,39.53
2018-04-13T08:01:24.385Z,40.97
2018-04-13T08:03:52.040Z,40.30
2018-04-13T08:06:19.551Z,43.00
2018-04-13T08:08:47.065Z,40.77
2018-04-13T08:11:14.581Z,40.43
2018-04-13T08:13:42.169Z,42.47
2018-04-13T08:16:09.680Z,41.73
2018-04-13T08:18:37.185Z,42.53
2018-04-13T08:21:04.860Z,43.60
2018-04-13T08:23:32.373Z,42.20
2018-04-13T08:26:00.078Z,41.60
2018-04-13T08:28:27.579Z,41.60
2018-04-13T08:30:55.098Z,40.37
2018-04-13T08:33:22.620Z,42.20
2018-04-13T08:35:50.174Z,42.70
2018-04-13T08:38:17.715Z,40.00
2018-04-13T08:40:45.433Z,41.27
2018-04-13T08:43:13.195Z,40.97
2018-04-13T08:45:40.952Z,42.53
2018-04-13T08:48:08.467Z,40.47
2018-04-13T08:50:35.979Z,42.10
2018-04-13T08:53:03.538Z,40.30
2018-04-13T08:55:31.073Z,41.10
2018-04-13T08:57:58.589Z,41.80
2018-04-13T09:00:26.567Z,43.93
2018-04-13T09:02:54.089Z,44.77
2018-04-13T09:05:21.599Z,46.03
2018-04-13T09:07:49.171Z,45.60
2018-04-13T09:10:16.747Z,46.37
2018-04-13T09:12:44.283Z,50.17
2018-04-13T09:15:11.782Z,48.20
2018-04-13T09:17:39.449Z,50.43
2018-04-13T09:20:06.963Z,51.37
2018-04-13T09:22:34.654Z,55.60
2018-04-13T09:25:02.172Z,55.70
2018-04-13T09:27:29.680Z,54.80
2018-04-13T09:29:57.202Z,52.30
2018-04-13T09:32:24.803Z,53.93
2018-04-13T09:34:52.324Z,54.20
2018-04-13T09:37:20.023Z,52.07
2018-04-13T09:39:47.536Z,51.73
2018-04-13T09:42:15.046Z,51.40
2018-04-13T09:44:43.326Z,49.03
2018-04-13T09:47:11.061Z,48.70
2018-04-13T09:49:38.809Z,47.30
2018-04-13T09:52:06.446Z,46.73
2018-04-13T09:54:34.026Z,44.13
2018-04-13T09:57:01.547Z,48.50
2018-04-13T09:59:29.042Z,47.50
2018-04-13T10:01:56.558Z,47.67
2018-04-13T10:04:24.141Z,49.40
2018-04-13T10:06:51.650Z,49.30
2018-04-13T10:09:19.181Z,48.20
2018-04-13T10:11:46.718Z,50.90
2018-04-13T10:14:14.219Z,46.80
2018-04-13T10:16:41.754Z,48.30
2018-04-13T10:19:09.517Z,44.50
2018-04-13T10:21:37.065Z,44.87
2018-04-13T10:24:04.618Z,47.37
2018-04-13T10:26:32.190Z,43.80
2018-04-13T10:28:59.705Z,45.20
2018-04-13T10:31:27.253Z,45.00
2018-04-13T10:33:54.786Z,43.23
2018-04-13T10:36:22.310Z,42.67
2018-04-13T10:38:49.825Z,43.30
2018-04-13T10:41:17.720Z,43.00
2018-04-13T10:43:45.314Z,44.07
2018-04-13T10:46:12.840Z,44.53
2018-04-13T10:48:40.363Z,44.60
2018-04-13T10:51:08.654Z,44.00
2018-04-13T10:53:36.188Z,43.00
2018-04-13T10:56:03.708Z,46.23
2018-04-13T10:58:31.267Z,47.13
2018-04-13T11:00:58.786Z,48.57
2018-04-13T11:03:26.297Z,51.07
2018-04-13T11:05:53.844Z,52.17
2018-04-13T11:08:21.535Z,53.47
2018-04-13T11:10:49.097Z,55.97
2018-04-13T11:13:16.585Z,56.40
2018-04-13T11:15:44.093Z,57.43
2018-04-13T11:18:13.382Z,59.40
2018-04-13T11:20:40.921Z,61.27
2018-04-13T11:23:08.530Z,61.93
2018-04-13T11:25:36.845Z,60.47
2018-04-13T11:28:04.412Z,63.33
2018-04-13T11:30:31.922Z,61.07
2018-04-13T11:32:59.666Z,61.10
2018-04-13T11:35:27.186Z,63.20
2018-04-13T11:37:54.865Z,58.70
2018-04-13T11:40:22.386Z,61.50
2018-04-13T11:42:49.911Z,61.53
2018-04-13T11:45:17.430Z,62.00
2018-04-13T11:47:45.019Z,62.57
2018-04-13T11:50:12.533Z,60.87
2018-04-13T11:52:40.142Z,60.80
2018-04-13T11:55:08.426Z,61.60
2018-04-13T11:57:36.066Z,62.90
2018-04-13T12:00:03.578Z,61.00
2018-04-13T12:02:31.272Z,63.27
2018-04-13T12:04:58.774Z,62.17
2018-04-13T12:07:26.521Z,63.50
2018-04-13T12:09:54.665Z,60.03
2018-04-13T12:12:22.191Z,59.10
2018-04-13T12:14:49.806Z,61.77
2018-04-13T12:17:17.330Z,62.10
2018-04-13T12:19:44.973Z,60.37
2018-04-13T12:22:12.508Z,61.97
2018-04-13T12:24:40.260Z,59.67
2018-04-13T12:27:08.023Z,63.07
2018-04-13T12:29:35.568Z,60.07
2018-04-13T12:32:03.134Z,61.07
2018-04-13T12:34:30.678Z,58.87
2018-04-13T12:36:58.210Z,62.53
2018-04-13T12:39:25.725Z,58.40
2018-04-13T12:41:54.010Z,57.03
2018-04-13T12:44:21.521Z,60.60
2018-04-13T12:46:49.048Z,55.47
2018-04-13T12:49:16.558Z,56.57
2018-04-13T12:51:44.078Z,53.97
2018-04-13T12:54:11.662Z,56.17
2018-04-13T12:56:39.559Z,55.00
2018-04-13T12:59:07.064Z,54.67
2018-04-13T13:01:34.681Z,54.20
2018-04-13T13:04:03.225Z,53.43
2018-04-13T13:06:31.295Z,55.03
2018-04-13T13:08:58.816Z,54.20
2018-04-13T13:11:26.345Z,53.40
2018-04-13T13:13:54.629Z,53.20
2018-04-13T13:16:23.144Z,48.93
2018-04-13T13:18:50.641Z,49.40
2018-04-13T13:21:18.162Z,50.70
2018-04-13T13:23:45.676Z,48.30
2018-04-13T13:26:13.181Z,47.30
2018-04-13T13:28:40.845Z,49.10
2018-04-13T13:31:08.605Z,48.40
2018-04-13T13:33:36.400Z,46.50
2018-04-13T13:36:04.152Z,46.30
2018-04-13T13:38:31.918Z,46.30
2018-04-13T13:40:59.438Z,45.80
2018-04-13T13:43:27.147Z,42.57
2018-04-13T13:45:54.686Z,42.57
2018-04-13T13:48:22.342Z,42.00
2018-04-13T13:50:50.134Z,44.27
2018-04-13T13:53:17.654Z,40.10
2018-04-13T13:55:45.165Z,39.07
2018-04-13T13:58:12.678Z,38.20
2018-04-13T14:00:40.231Z,38.77
2018-04-13T14:03:07.746Z,35.90
2018-04-13T14:05:35.254Z,36.17
2018-04-13T14:08:02.815Z,35.77
2018-04-13T14:10:30.379Z,37.10
2018-04-13T14:12:57.921Z,35.43
2018-04-13T14:15:25.421Z,34.10
2018-04-13T14:17:52.942Z,34.03
2018-04-13T14:20:20.450Z,34.00
2018-04-13T14:22:47.982Z,31.20
2018-04-13T14:25:15.506Z,31.50
2018-04-13T14:27:43.171Z,31.03
2018-04-13T14:30:10.689Z,30.50
2018-04-13T14:32:38.228Z,28.77
2018-04-13T14:35:05.756Z,28.13
2018-04-13T14:37:33.263Z,30.50
2018-04-13T14:40:00.788Z,27.07
2018-04-13T14:42:28.312Z,28.63
2018-04-13T14:44:55.823Z,27.63
2018-04-13T14:47:23.354Z,31.20
2018-04-13T14:49:50.866Z,32.53
2018-04-13T14:52:18.373Z,30.70
2018-04-13T14:54:45.907Z,29.00
2018-04-13T14:57:13.596Z,30.60
2018-04-13T14:59:41.130Z,33.30
2018-04-13T15:02:08.813Z,30.00
2018-04-13T15:04:36.333Z,32.17
2018-04-13T15:07:04.039Z,30.20
2018-04-13T15:09:31.759Z,33.60
2018-04-13T15:11:59.262Z,34.47
2018-04-13T15:14:26.786Z,32.87
2018-04-13T15:16:54.482Z,33.83
2018-04-13T15:19:22.026Z,34.93
2018-04-13T15:21:49.663Z,34.20
2018-04-13T15:24:17.186Z,34.30
2018-04-13T15:26:44.694Z,34.57
2018-04-13T15:29:12.208Z,36.00
2018-04-13T15:31:40.479Z,34.23
2018-04-13T15:34:08.250Z,35.30
2018-04-13T15:36:35.739Z,37.23
2018-04-13T15:39:03.255Z,37.03
2018-04-13T15:41:31.530Z,37.13
2018-04-13T15:43:59.055Z,36.77
2018-04-13T15:46:26.566Z,38.13
2018-04-13T15:48:54.098Z,36.37
2018-04-13T15:51:21.606Z,36.43
2018-04-13T15:53:49.395Z,37.47
2018-04-13T15:56:16.906Z,36.57
2018-04-13T15:58:45.115Z,38.50
2018-04-13T16:01:12.624Z,37.93
2018-04-13T16:03:40.137Z,37.83
2018-04-13T16:06:07.654Z,37.07
2018-04-13T16:08:35.191Z,39.47
2018-04-13T16:11:02.700Z,38.17
2018-04-13T16:13:30.251Z,38.70
2018-04-13T16:15:57.769Z,39.43
2018-04-13T16:18:25.288Z,37.47
2018-04-13T16:20:52.805Z,37.90
2018-04-13T16:23:21.822Z,36.77
2018-04-13T16:25:49.336Z,37.23
2018-04-13T16:28:16.855Z,37.30
2018-04-13T16:30:44.590Z,35.90
2018-04-13T16:33:12.321Z,37.43
2018-04-13T16:35:39.842Z,37.77
2018-04-13T16:38:07.356Z,36.40
2018-04-13T16:40:34.871Z,36.90
2018-04-13T16:43:02.387Z,34.60
2018-04-13T16:45:29.906Z,37.23
2018-04-13T16:47:57.452Z,36.50
2018-04-13T16:50:25.193Z,38.77
2018-04-13T16:52:52.728Z,35.80
2018-04-13T16:55:20.402Z,37.60
2018-04-13T16:57:47.975Z,36.60
2018-04-13T17:00:15.489Z,37.10
2018-04-13T17:02:42.992Z,38.33
2018-04-13T17:05:10.510Z,41.90
2018-04-13T17:07:38.019Z,38.53
2018-04-13T17:10:06.660Z,40.83
2018-04-13T17:12:34.173Z,42.60
2018-04-13T17:15:01.694Z,39.17
2018-04-13T17:17:29.382Z,41.00
2018-04-13T17:19:56.890Z,39.13
2018-04-13T17:22:24.588Z,43.27
2018-04-13T17:24:52.349Z,43.50
2018-04-13T17:27:21.034Z,40.83
2018-04-13T17:29:48.561Z,47.67
2018-04-13T17:32:16.090Z,41.63
2018-04-13T17:34:45.281Z,40.60
2018-04-13T17:37:13.591Z,41.10
2018-04-13T17:39:41.112Z,41.87
2018-04-13T17:42:08.659Z,42.60
2018-04-13T17:44:36.293Z,41.30
2018-04-13T17:47:03.815Z,40.57
2018-04-13T17:49:31.490Z,41.53
2018-04-13T17:51:59.297Z,39.27
2018-04-13T17:54:26.827Z,41.23
2018-04-13T17:56:54.348Z,39.40
2018-04-13T17:59:22.638Z,41.13
2018-04-13T18:01:50.156Z,39.03
2018-04-13T18:04:17.675Z,38.50
2018-04-13T18:06:45.274Z,38.73
2018-04-13T18:09:14.011Z,35.47
2018-04-13T18:11:41.525Z,35.47
2018-04-13T18:14:10.085Z,37.70
2018-04-13T18:16:37.851Z,35.07
2018-04-13T18:19:05.379Z,35.20
2018-04-13T18:21:32.883Z,35.40
2018-04-13T18:24:00.486Z,38.30
2018-04-13T18:26:28.006Z,38.53
2018-04-13T18:28:55.538Z,39.27
2018-04-13T18:31:23.113Z,38.80
2018-04-13T18:33:50.716Z,37.13
2018-04-13T18:36:19.029Z,37.00
2018-04-13T18:38:46.537Z,33.00
2018-04-13T18:41:14.076Z,37.47
2018-04-13T18:43:41.721Z,35.60
2018-04-13T18:46:09.680Z,39.43
2018-04-13T18:48:37.160Z,36.20
2018-04-13T18:51:04.671Z,35.07
2018-04-13T18:53:32.193Z,36.27
2018-04-13T18:55:59.911Z,35.40
2018-04-13T18:58:27.678Z,35.07
2018-04-13T19:00:55.197Z,33.27
2018-04-13T19:03:22.726Z,34.63
2018-04-13T19:05:51.274Z,35.17
2018-04-13T19:08:18.781Z,33.93
2018-04-13T19:10:46.312Z,34.30
2018-04-13T19:13:13.946Z,33.10
2018-04-13T19:15:41.467Z,35.13
2018-04-13T19:18:08.987Z,34.97
2018-04-13T19:20:36.553Z,31.37
2018-04-13T19:23:04.703Z,34.30
2018-04-13T19:25:32.254Z,35.50
2018-04-13T19:27:59.931Z,34.53
2018-04-13T19:30:29.212Z,34.70
2018-04-13T19:32:56.772Z,35.07
2018-04-13T19:35:24.277Z,34.33
2018-04-13T19:37:51.781Z,33.23
2018-04-13T19:40:19.993Z,40.33
2018-04-13T19:42:47.530Z,38.67
2018-04-13T19:45:15.055Z,33.53
2018-04-13T19:47:42.570Z,33.70
2018-04-13T19:50:10.087Z,35.37
2018-04-13T19:52:37.694Z,35.30
2018-04-13T19:55:05.316Z,36.03
2018-04-13T19:57:32.840Z,36.70
2018-04-13T20:00:00.354Z,36.87
2018-04-13T20:02:27.886Z,33.57
2018-04-13T20:04:55.454Z,36.30
2018-04-13T20:07:22.986Z,34.67
2018-04-13T20:09:50.579Z,37.50
2018-04-13T20:12:20.054Z,34.50
2018-04-13T20:14:47.750Z,36.47
2018-04-13T20:17:16.877Z,43.20
2018-04-13T20:19:45.160Z,38.37
2018-04-13T20:22:12.699Z,43.57
2018-04-13T20:24:40.985Z,35.50
2018-04-13T20:27:08.695Z,34.07
2018-04-13T20:29:36.230Z,34.40
2018-04-13T20:32:03.920Z,37.37
2018-04-13T20:34:31.452Z,35.90
2018-04-13T20:36:58.975Z,37.03
2018-04-13T20:39:27.255Z,38.93
2018-04-13T20:41:54.795Z,37.33
2018-04-13T20:44:22.326Z,38.60
2018-04-13T20:46:49.857Z,40.10
2018-04-13T20:49:17.415Z,38.07
2018-04-13T20:51:45.416Z,36.60
2018-04-13T20:54:12.922Z,39.40
2018-04-13T20:56:40.453Z,37.87
2018-04-13T20:59:07.974Z,39.27
2018-04-13T21:01:35.515Z,37.77
2018-04-13T21:04:03.017Z,40.30
2018-04-13T21:06:30.588Z,39.50
2018-04-13T21:08:58.113Z,38.37
2018-04-13T21:11:25.633Z,39.67
2018-04-13T21:13:53.130Z,42.20
2018-04-13T21:16:20.677Z,37.20
2018-04-13T21:18:48.339Z,42.37
2018-04-13T21:21:15.876Z,37.93
2018-04-13T21:23:43.402Z,38.10
2018-04-13T21:26:11.686Z,36.57
2018-04-13T21:28:39.221Z,37.07
2018-04-13T21:31:06.727Z,36.10
2018-04-13T21:33:34.304Z,38.57
2018-04-13T21:36:02.092Z,35.90
2018-04-13T21:38:29.605Z,37.53
2018-04-13T21:40:57.102Z,37.27
2018-04-13T21:43:24.611Z,36.20
2018-04-13T21:45:53.147Z,34.90
2018-04-13T21:48:20.669Z,38.60
2018-04-13T21:50:48.334Z,36.40
2018-04-13T21:53:15.837Z,38.70
2018-04-13T21:55:43.337Z,35.13
2018-04-13T21:58:11.007Z,35.03
2018-04-13T22:00:38.518Z,36.97
2018-04-13T22:03:06.084Z,38.47
2018-04-13T22:05:33.718Z,37.17
2018-04-13T22:08:01.223Z,39.27
2018-04-13T22:10:28.954Z,63.73
2018-04-13T22:13:08.375Z,35.97
2018-04-13T22:15:36.777Z,35.70
2018-04-13T22:18:04.296Z,36.67
2018-04-13T22:20:31.968Z,37.93
2018-04-13T22:22:59.501Z,51.70
2018-04-13T22:25:26.994Z,40.60
2018-04-13T22:27:54.516Z,40.20
2018-04-13T22:30:22.058Z,38.23
2018-04-13T22:32:49.622Z,35.93
2018-04-13T22:35:17.123Z,37.10
2018-04-13T22:37:44.642Z,36.03
2018-04-13T22:40:12.172Z,37.67
2018-04-13T22:42:39.669Z,37.97
2018-04-13T22:45:07.886Z,38.63
2018-04-13T22:47:35.398Z,39.57
2018-04-13T22:50:03.782Z,37.63
2018-04-13T22:52:31.353Z,38.07
2018-04-13T22:54:58.862Z,39.13
2018-04-13T22:57:26.496Z,39.27
2018-04-13T22:59:54.005Z,36.90
2018-04-13T23:02:21.518Z,40.47
2018-04-13T23:04:49.036Z,40.70
2018-04-13T23:07:16.534Z,39.53
2018-04-13T23:09:44.096Z,40.17
2018-04-13T23:12:11.622Z,40.20
2018-04-13T23:14:39.125Z,39.53
2018-04-13T23:17:06.834Z,40.77
2018-04-13T23:19:35.298Z,41.77
2018-04-13T23:22:02.813Z,42.33
2018-04-13T23:24:30.534Z,39.27
2018-04-13T23:26:58.036Z,42.23
2018-04-13T23:29:26.416Z,38.47
2018-04-13T23:31:54.965Z,39.00
2018-04-13T23:34:22.783Z,42.87
2018-04-13T23:36:50.390Z,40.83
2018-04-13T23:39:17.900Z,39.60
2018-04-13T23:41:46.222Z,42.00
2018-04-13T23:44:13.729Z,39.20
2018-04-13T23:46:41.538Z,42.90
2018-04-13T23:49:09.114Z,40.33
2018-04-13T23:51:36.756Z,40.00
2018-04-13T23:54:04.358Z,39.00
2018-04-13T23:56:32.634Z,39.63
2018-04-13T23:59:00.159Z,43.07
